sensor_id;sensor_type;location;lat;lon;timestamp;pressure;altitude;pressure_sealevel;temperature
44429;BMP180;30134;47.866;-4.222;2022-11-13T00:02:13;101921.00;;;26.60
44429;BMP180;30134;47.866;-4.222;2022-11-13T00:04:38;101920.00;;;26.60
44429;BMP180;30134;47.866;-4.222;2022-11-13T00:07:04;101917.00;;;26.70
44429;BMP180;30134;47.866;-4.222;2022-11-13T00:09:30;101914.00;;;26.70
44429;BMP180;30134;47.866;-4.222;2022-11-13T00:11:56;101917.00;;;26.70
44429;BMP180;30134;47.866;-4.222;2022-11-13T00:14:21;101911.00;;;26.70
44429;BMP180;30134;47.866;-4.222;2022-11-13T00:16:47;101912.00;;;26.70
44429;BMP180;30134;47.866;-4.222;2022-11-13T00:19:13;101916.00;;;26.70
44429;BMP180;30134;47.866;-4.222;2022-11-13T00:21:39;101914.00;;;26.70
44429;BMP180;30134;47.866;-4.222;2022-11-13T00:24:05;101908.00;;;26.70
44429;BMP180;30134;47.866;-4.222;2022-11-13T00:26:31;101907.00;;;26.70
44429;BMP180;30134;47.866;-4.222;2022-11-13T00:28:59;101904.00;;;26.80
44429;BMP180;30134;47.866;-4.222;2022-11-13T00:31:26;101894.00;;;26.80
44429;BMP180;30134;47.866;-4.222;2022-11-13T00:33:53;101896.00;;;26.80
44429;BMP180;30134;47.866;-4.222;2022-11-13T00:36:21;101890.00;;;26.90
44429;BMP180;30134;47.866;-4.222;2022-11-13T00:38:48;101883.00;;;26.90
44429;BMP180;30134;47.866;-4.222;2022-11-13T00:41:14;101870.00;;;26.90
44429;BMP180;30134;47.866;-4.222;2022-11-13T00:43:40;101871.00;;;26.90
44429;BMP180;30134;47.866;-4.222;2022-11-13T00:46:06;101864.00;;;26.90
44429;BMP180;30134;47.866;-4.222;2022-11-13T00:48:32;101870.00;;;26.90
44429;BMP180;30134;47.866;-4.222;2022-11-13T00:50:58;101860.00;;;26.90
44429;BMP180;30134;47.866;-4.222;2022-11-13T00:53:25;101864.00;;;26.90
44429;BMP180;30134;47.866;-4.222;2022-11-13T00:55:51;101855.00;;;26.90
44429;BMP180;30134;47.866;-4.222;2022-11-13T00:58:18;101853.00;;;26.90
44429;BMP180;30134;47.866;-4.222;2022-11-13T01:00:47;101858.00;;;26.90
44429;BMP180;30134;47.866;-4.222;2022-11-13T01:03:14;101858.00;;;26.90
44429;BMP180;30134;47.866;-4.222;2022-11-13T01:05:46;101849.00;;;26.90
44429;BMP180;30134;47.866;-4.222;2022-11-13T01:08:13;101842.00;;;26.90
44429;BMP180;30134;47.866;-4.222;2022-11-13T01:10:44;101842.00;;;26.90
44429;BMP180;30134;47.866;-4.222;2022-11-13T01:13:11;101836.00;;;26.90
44429;BMP180;30134;47.866;-4.222;2022-11-13T01:15:44;101835.00;;;26.90
44429;BMP180;30134;47.866;-4.222;2022-11-13T01:18:10;101838.00;;;26.90
44429;BMP180;30134;47.866;-4.222;2022-11-13T01:20:38;101825.00;;;26.90
44429;BMP180;30134;47.866;-4.222;2022-11-13T01:23:04;101823.00;;;26.90
44429;BMP180;30134;47.866;-4.222;2022-11-13T01:25:30;101826.00;;;26.90
44429;BMP180;30134;47.866;-4.222;2022-11-13T01:27:56;101827.00;;;26.90
44429;BMP180;30134;47.866;-4.222;2022-11-13T01:30:23;101829.00;;;26.90
44429;BMP180;30134;47.866;-4.222;2022-11-13T01:32:49;101827.00;;;26.90
44429;BMP180;30134;47.866;-4.222;2022-11-13T01:35:15;101819.00;;;26.90
44429;BMP180;30134;47.866;-4.222;2022-11-13T01:37:43;101825.00;;;26.90
44429;BMP180;30134;47.866;-4.222;2022-11-13T01:40:11;101822.00;;;26.90
44429;BMP180;30134;47.866;-4.222;2022-11-13T01:42:38;101828.00;;;26.90
44429;BMP180;30134;47.866;-4.222;2022-11-13T01:48:36;101821.00;;;26.90
44429;BMP180;30134;47.866;-4.222;2022-11-13T01:51:17;101817.00;;;26.90
44429;BMP180;30134;47.866;-4.222;2022-11-13T01:53:45;101815.00;;;26.90
44429;BMP180;30134;47.866;-4.222;2022-11-13T01:56:13;101815.00;;;27.00
44429;BMP180;30134;47.866;-4.222;2022-11-13T01:58:43;101812.00;;;27.00
44429;BMP180;30134;47.866;-4.222;2022-11-13T02:01:10;101808.00;;;27.00
44429;BMP180;30134;47.866;-4.222;2022-11-13T02:03:36;101810.00;;;27.00
44429;BMP180;30134;47.866;-4.222;2022-11-13T02:06:02;101805.00;;;27.00
44429;BMP180;30134;47.866;-4.222;2022-11-13T02:08:30;101796.00;;;27.00
44429;BMP180;30134;47.866;-4.222;2022-11-13T02:10:56;101797.00;;;27.00
44429;BMP180;30134;47.866;-4.222;2022-11-13T02:13:23;101788.00;;;27.00
44429;BMP180;30134;47.866;-4.222;2022-11-13T02:15:50;101784.00;;;27.00
44429;BMP180;30134;47.866;-4.222;2022-11-13T02:18:18;101782.00;;;27.00
44429;BMP180;30134;47.866;-4.222;2022-11-13T02:24:08;101772.00;;;27.00
44429;BMP180;30134;47.866;-4.222;2022-11-13T02:26:36;101762.00;;;27.00
44429;BMP180;30134;47.866;-4.222;2022-11-13T02:29:02;101759.00;;;27.00
44429;BMP180;30134;47.866;-4.222;2022-11-13T02:31:28;101754.00;;;27.00
44429;BMP180;30134;47.866;-4.222;2022-11-13T02:33:54;101746.00;;;27.00
44429;BMP180;30134;47.866;-4.222;2022-11-13T02:36:22;101746.00;;;27.00
44429;BMP180;30134;47.866;-4.222;2022-11-13T02:38:51;101741.00;;;27.00
44429;BMP180;30134;47.866;-4.222;2022-11-13T02:41:20;101729.00;;;26.90
44429;BMP180;30134;47.866;-4.222;2022-11-13T02:43:46;101732.00;;;26.60
44429;BMP180;30134;47.866;-4.222;2022-11-13T02:46:14;101728.00;;;26.30
44429;BMP180;30134;47.866;-4.222;2022-11-13T02:48:42;101728.00;;;26.10
44429;BMP180;30134;47.866;-4.222;2022-11-13T02:51:10;101728.00;;;25.90
44429;BMP180;30134;47.866;-4.222;2022-11-13T02:53:37;101729.00;;;25.70
44429;BMP180;30134;47.866;-4.222;2022-11-13T02:56:03;101720.00;;;25.50
44429;BMP180;30134;47.866;-4.222;2022-11-13T02:58:29;101721.00;;;25.40
44429;BMP180;30134;47.866;-4.222;2022-11-13T03:01:01;101720.00;;;25.20
44429;BMP180;30134;47.866;-4.222;2022-11-13T03:03:28;101723.00;;;25.10
44429;BMP180;30134;47.866;-4.222;2022-11-13T03:05:55;101716.00;;;25.00
44429;BMP180;30134;47.866;-4.222;2022-11-13T03:08:21;101726.00;;;24.90
44429;BMP180;30134;47.866;-4.222;2022-11-13T03:10:51;101727.00;;;24.80
44429;BMP180;30134;47.866;-4.222;2022-11-13T03:13:17;101715.00;;;24.70
44429;BMP180;30134;47.866;-4.222;2022-11-13T03:15:44;101708.00;;;24.60
44429;BMP180;30134;47.866;-4.222;2022-11-13T03:18:12;101701.00;;;24.50
44429;BMP180;30134;47.866;-4.222;2022-11-13T03:20:41;101690.00;;;24.50
44429;BMP180;30134;47.866;-4.222;2022-11-13T03:23:08;101693.00;;;24.40
44429;BMP180;30134;47.866;-4.222;2022-11-13T03:25:34;101690.00;;;24.30
44429;BMP180;30134;47.866;-4.222;2022-11-13T03:28:00;101698.00;;;24.30
44429;BMP180;30134;47.866;-4.222;2022-11-13T03:30:27;101699.00;;;24.20
44429;BMP180;30134;47.866;-4.222;2022-11-13T03:32:54;101685.00;;;24.20
44429;BMP180;30134;47.866;-4.222;2022-11-13T03:35:22;101699.00;;;24.20
44429;BMP180;30134;47.866;-4.222;2022-11-13T03:37:49;101695.00;;;24.10
44429;BMP180;30134;47.866;-4.222;2022-11-13T03:40:16;101705.00;;;24.10
44429;BMP180;30134;47.866;-4.222;2022-11-13T03:42:42;101704.00;;;24.10
44429;BMP180;30134;47.866;-4.222;2022-11-13T03:45:08;101696.00;;;24.00
44429;BMP180;30134;47.866;-4.222;2022-11-13T03:47:35;101695.00;;;24.00
44429;BMP180;30134;47.866;-4.222;2022-11-13T03:50:01;101689.00;;;24.00
44429;BMP180;30134;47.866;-4.222;2022-11-13T03:52:30;101694.00;;;23.90
44429;BMP180;30134;47.866;-4.222;2022-11-13T03:54:56;101698.00;;;23.90
44429;BMP180;30134;47.866;-4.222;2022-11-13T03:57:21;101692.00;;;23.90
44429;BMP180;30134;47.866;-4.222;2022-11-13T03:59:47;101702.00;;;23.90
44429;BMP180;30134;47.866;-4.222;2022-11-13T04:02:13;101698.00;;;23.80
44429;BMP180;30134;47.866;-4.222;2022-11-13T04:04:39;101703.00;;;23.90
44429;BMP180;30134;47.866;-4.222;2022-11-13T04:07:05;101700.00;;;24.00
44429;BMP180;30134;47.866;-4.222;2022-11-13T04:09:31;101703.00;;;24.20
44429;BMP180;30134;47.866;-4.222;2022-11-13T04:11:57;101688.00;;;24.30
44429;BMP180;30134;47.866;-4.222;2022-11-13T04:14:22;101678.00;;;24.40
44429;BMP180;30134;47.866;-4.222;2022-11-13T04:16:48;101680.00;;;24.50
44429;BMP180;30134;47.866;-4.222;2022-11-13T04:19:14;101674.00;;;24.50
44429;BMP180;30134;47.866;-4.222;2022-11-13T04:21:40;101674.00;;;24.60
44429;BMP180;30134;47.866;-4.222;2022-11-13T04:24:08;101675.00;;;24.70
44429;BMP180;30134;47.866;-4.222;2022-11-13T04:26:34;101674.00;;;24.80
44429;BMP180;30134;47.866;-4.222;2022-11-13T04:29:00;101666.00;;;24.90
44429;BMP180;30134;47.866;-4.222;2022-11-13T04:31:25;101665.00;;;24.90
44429;BMP180;30134;47.866;-4.222;2022-11-13T04:33:51;101669.00;;;25.00
44429;BMP180;30134;47.866;-4.222;2022-11-13T04:36:17;101659.00;;;25.00
44429;BMP180;30134;47.866;-4.222;2022-11-13T04:38:43;101659.00;;;25.10
44429;BMP180;30134;47.866;-4.222;2022-11-13T04:41:12;101661.00;;;25.20
44429;BMP180;30134;47.866;-4.222;2022-11-13T04:43:57;101653.00;;;25.20
44429;BMP180;30134;47.866;-4.222;2022-11-13T04:46:23;101651.00;;;25.30
44429;BMP180;30134;47.866;-4.222;2022-11-13T04:48:49;101648.00;;;25.30
44429;BMP180;30134;47.866;-4.222;2022-11-13T04:51:14;101637.00;;;25.30
44429;BMP180;30134;47.866;-4.222;2022-11-13T04:53:40;101637.00;;;25.40
44429;BMP180;30134;47.866;-4.222;2022-11-13T04:56:06;101635.00;;;25.40
44429;BMP180;30134;47.866;-4.222;2022-11-13T04:58:32;101632.00;;;25.50
44429;BMP180;30134;47.866;-4.222;2022-11-13T05:00:58;101625.00;;;25.50
44429;BMP180;30134;47.866;-4.222;2022-11-13T05:03:24;101631.00;;;25.50
44429;BMP180;30134;47.866;-4.222;2022-11-13T05:05:50;101636.00;;;25.50
44429;BMP180;30134;47.866;-4.222;2022-11-13T05:08:16;101636.00;;;25.60
44429;BMP180;30134;47.866;-4.222;2022-11-13T05:10:42;101628.00;;;25.60
44429;BMP180;30134;47.866;-4.222;2022-11-13T05:13:08;101628.00;;;25.60
44429;BMP180;30134;47.866;-4.222;2022-11-13T05:15:33;101632.00;;;25.70
44429;BMP180;30134;47.866;-4.222;2022-11-13T05:17:59;101641.00;;;25.70
44429;BMP180;30134;47.866;-4.222;2022-11-13T05:20:25;101634.00;;;25.70
44429;BMP180;30134;47.866;-4.222;2022-11-13T05:22:51;101634.00;;;25.70
44429;BMP180;30134;47.866;-4.222;2022-11-13T05:25:17;101635.00;;;25.80
44429;BMP180;30134;47.866;-4.222;2022-11-13T05:27:43;101635.00;;;25.80
44429;BMP180;30134;47.866;-4.222;2022-11-13T05:30:09;101638.00;;;25.80
44429;BMP180;30134;47.866;-4.222;2022-11-13T05:32:35;101633.00;;;25.80
44429;BMP180;30134;47.866;-4.222;2022-11-13T05:35:00;101626.00;;;25.80
44429;BMP180;30134;47.866;-4.222;2022-11-13T05:37:27;101631.00;;;25.90
44429;BMP180;30134;47.866;-4.222;2022-11-13T05:39:53;101622.00;;;25.90
44429;BMP180;30134;47.866;-4.222;2022-11-13T05:42:19;101622.00;;;25.90
44429;BMP180;30134;47.866;-4.222;2022-11-13T05:44:45;101622.00;;;25.90
44429;BMP180;30134;47.866;-4.222;2022-11-13T05:47:11;101621.00;;;25.90
44429;BMP180;30134;47.866;-4.222;2022-11-13T05:49:40;101622.00;;;26.00
44429;BMP180;30134;47.866;-4.222;2022-11-13T05:52:05;101629.00;;;26.00
44429;BMP180;30134;47.866;-4.222;2022-11-13T05:54:31;101622.00;;;26.00
44429;BMP180;30134;47.866;-4.222;2022-11-13T05:56:57;101632.00;;;26.00
44429;BMP180;30134;47.866;-4.222;2022-11-13T05:59:23;101621.00;;;26.00
44429;BMP180;30134;47.866;-4.222;2022-11-13T06:01:48;101619.00;;;26.00
44429;BMP180;30134;47.866;-4.222;2022-11-13T06:04:14;101618.00;;;26.00
44429;BMP180;30134;47.866;-4.222;2022-11-13T06:06:40;101623.00;;;26.10
44429;BMP180;30134;47.866;-4.222;2022-11-13T06:09:07;101621.00;;;26.10
44429;BMP180;30134;47.866;-4.222;2022-11-13T06:11:33;101618.00;;;26.10
44429;BMP180;30134;47.866;-4.222;2022-11-13T06:13:59;101615.00;;;26.10
44429;BMP180;30134;47.866;-4.222;2022-11-13T06:16:32;101619.00;;;26.10
44429;BMP180;30134;47.866;-4.222;2022-11-13T06:18:59;101609.00;;;26.10
44429;BMP180;30134;47.866;-4.222;2022-11-13T06:21:28;101615.00;;;26.10
44429;BMP180;30134;47.866;-4.222;2022-11-13T06:23:58;101600.00;;;26.10
44429;BMP180;30134;47.866;-4.222;2022-11-13T06:26:27;101602.00;;;26.10
44429;BMP180;30134;47.866;-4.222;2022-11-13T06:28:57;101601.00;;;26.10
44429;BMP180;30134;47.866;-4.222;2022-11-13T06:31:25;101591.00;;;26.10
44429;BMP180;30134;47.866;-4.222;2022-11-13T06:33:51;101588.00;;;26.20
44429;BMP180;30134;47.866;-4.222;2022-11-13T06:36:19;101593.00;;;26.20
44429;BMP180;30134;47.866;-4.222;2022-11-13T06:38:49;101591.00;;;26.20
44429;BMP180;30134;47.866;-4.222;2022-11-13T06:41:18;101588.00;;;26.20
44429;BMP180;30134;47.866;-4.222;2022-11-13T06:43:44;101587.00;;;26.20
44429;BMP180;30134;47.866;-4.222;2022-11-13T06:46:16;101580.00;;;26.20
44429;BMP180;30134;47.866;-4.222;2022-11-13T06:48:42;101583.00;;;26.20
44429;BMP180;30134;47.866;-4.222;2022-11-13T06:51:14;101586.00;;;26.20
44429;BMP180;30134;47.866;-4.222;2022-11-13T06:53:40;101591.00;;;26.20
44429;BMP180;30134;47.866;-4.222;2022-11-13T06:56:08;101583.00;;;26.20
44429;BMP180;30134;47.866;-4.222;2022-11-13T06:58:34;101579.00;;;26.20
44429;BMP180;30134;47.866;-4.222;2022-11-13T07:01:06;101587.00;;;26.20
44429;BMP180;30134;47.866;-4.222;2022-11-13T07:03:32;101589.00;;;26.20
44429;BMP180;30134;47.866;-4.222;2022-11-13T07:06:01;101587.00;;;26.30
44429;BMP180;30134;47.866;-4.222;2022-11-13T07:08:27;101587.00;;;26.30
44429;BMP180;30134;47.866;-4.222;2022-11-13T07:10:54;101591.00;;;26.30
44429;BMP180;30134;47.866;-4.222;2022-11-13T07:13:21;101585.00;;;26.30
44429;BMP180;30134;47.866;-4.222;2022-11-13T07:15:49;101586.00;;;26.30
44429;BMP180;30134;47.866;-4.222;2022-11-13T07:18:15;101578.00;;;26.30
44429;BMP180;30134;47.866;-4.222;2022-11-13T07:20:41;101591.00;;;26.30
44429;BMP180;30134;47.866;-4.222;2022-11-13T07:23:07;101592.00;;;26.30
44429;BMP180;30134;47.866;-4.222;2022-11-13T07:25:35;101594.00;;;26.30
44429;BMP180;30134;47.866;-4.222;2022-11-13T07:28:01;101599.00;;;26.30
44429;BMP180;30134;47.866;-4.222;2022-11-13T07:30:27;101599.00;;;26.30
44429;BMP180;30134;47.866;-4.222;2022-11-13T07:32:53;101601.00;;;26.30
44429;BMP180;30134;47.866;-4.222;2022-11-13T07:35:20;101599.00;;;26.30
44429;BMP180;30134;47.866;-4.222;2022-11-13T07:37:48;101596.00;;;26.30
44429;BMP180;30134;47.866;-4.222;2022-11-13T07:40:14;101592.00;;;26.30
44429;BMP180;30134;47.866;-4.222;2022-11-13T07:42:40;101601.00;;;26.30
44429;BMP180;30134;47.866;-4.222;2022-11-13T07:45:06;101586.00;;;26.40
44429;BMP180;30134;47.866;-4.222;2022-11-13T07:47:32;101588.00;;;26.40
44429;BMP180;30134;47.866;-4.222;2022-11-13T07:49:58;101592.00;;;26.40
44429;BMP180;30134;47.866;-4.222;2022-11-13T07:52:24;101587.00;;;26.40
44429;BMP180;30134;47.866;-4.222;2022-11-13T07:54:49;101592.00;;;26.40
44429;BMP180;30134;47.866;-4.222;2022-11-13T07:57:15;101589.00;;;26.40
44429;BMP180;30134;47.866;-4.222;2022-11-13T07:59:41;101593.00;;;26.40
44429;BMP180;30134;47.866;-4.222;2022-11-13T08:02:11;101592.00;;;26.40
44429;BMP180;30134;47.866;-4.222;2022-11-13T08:04:38;101582.00;;;26.40
44429;BMP180;30134;47.866;-4.222;2022-11-13T08:07:04;101592.00;;;26.40
44429;BMP180;30134;47.866;-4.222;2022-11-13T08:09:30;101601.00;;;26.40
44429;BMP180;30134;47.866;-4.222;2022-11-13T08:11:55;101593.00;;;26.40
44429;BMP180;30134;47.866;-4.222;2022-11-13T08:14:21;101596.00;;;26.40
44429;BMP180;30134;47.866;-4.222;2022-11-13T08:16:47;101603.00;;;26.40
44429;BMP180;30134;47.866;-4.222;2022-11-13T08:19:13;101606.00;;;26.40
44429;BMP180;30134;47.866;-4.222;2022-11-13T08:21:39;101599.00;;;26.40
44429;BMP180;30134;47.866;-4.222;2022-11-13T08:24:04;101594.00;;;26.40
44429;BMP180;30134;47.866;-4.222;2022-11-13T08:26:30;101595.00;;;26.40
44429;BMP180;30134;47.866;-4.222;2022-11-13T08:28:56;101595.00;;;26.40
44429;BMP180;30134;47.866;-4.222;2022-11-13T08:31:22;101595.00;;;26.40
44429;BMP180;30134;47.866;-4.222;2022-11-13T08:33:47;101590.00;;;26.40
44429;BMP180;30134;47.866;-4.222;2022-11-13T08:36:13;101589.00;;;26.40
44429;BMP180;30134;47.866;-4.222;2022-11-13T08:38:39;101592.00;;;26.40
44429;BMP180;30134;47.866;-4.222;2022-11-13T08:41:05;101590.00;;;26.40
44429;BMP180;30134;47.866;-4.222;2022-11-13T08:43:31;101591.00;;;26.40
44429;BMP180;30134;47.866;-4.222;2022-11-13T08:45:57;101591.00;;;26.50
44429;BMP180;30134;47.866;-4.222;2022-11-13T08:48:23;101590.00;;;26.50
44429;BMP180;30134;47.866;-4.222;2022-11-13T08:50:53;101597.00;;;26.50
44429;BMP180;30134;47.866;-4.222;2022-11-13T08:53:19;101594.00;;;26.50
44429;BMP180;30134;47.866;-4.222;2022-11-13T08:55:45;101585.00;;;26.50
44429;BMP180;30134;47.866;-4.222;2022-11-13T08:58:11;101597.00;;;26.50
44429;BMP180;30134;47.866;-4.222;2022-11-13T09:00:36;101581.00;;;26.50
44429;BMP180;30134;47.866;-4.222;2022-11-13T09:03:02;101581.00;;;26.50
44429;BMP180;30134;47.866;-4.222;2022-11-13T09:05:28;101580.00;;;26.50
44429;BMP180;30134;47.866;-4.222;2022-11-13T09:07:58;101577.00;;;26.50
44429;BMP180;30134;47.866;-4.222;2022-11-13T09:10:25;101580.00;;;26.50
44429;BMP180;30134;47.866;-4.222;2022-11-13T09:13:02;101576.00;;;26.50
44429;BMP180;30134;47.866;-4.222;2022-11-13T09:15:29;101582.00;;;26.50
44429;BMP180;30134;47.866;-4.222;2022-11-13T09:18:00;101572.00;;;26.50
44429;BMP180;30134;47.866;-4.222;2022-11-13T09:20:27;101568.00;;;26.50
44429;BMP180;30134;47.866;-4.222;2022-11-13T09:23:00;101563.00;;;26.50
44429;BMP180;30134;47.866;-4.222;2022-11-13T09:25:28;101559.00;;;26.50
44429;BMP180;30134;47.866;-4.222;2022-11-13T09:27:56;101558.00;;;26.50
44429;BMP180;30134;47.866;-4.222;2022-11-13T09:30:22;101556.00;;;26.50
44429;BMP180;30134;47.866;-4.222;2022-11-13T09:32:52;101567.00;;;26.50
44429;BMP180;30134;47.866;-4.222;2022-11-13T09:35:19;101560.00;;;26.50
44429;BMP180;30134;47.866;-4.222;2022-11-13T09:38:02;101559.00;;;26.50
44429;BMP180;30134;47.866;-4.222;2022-11-13T09:43:20;101555.00;;;26.50
44429;BMP180;30134;47.866;-4.222;2022-11-13T09:45:49;101558.00;;;26.50
44429;BMP180;30134;47.866;-4.222;2022-11-13T09:48:33;101553.00;;;26.50
44429;BMP180;30134;47.866;-4.222;2022-11-13T09:51:04;101552.00;;;26.50
44429;BMP180;30134;47.866;-4.222;2022-11-13T09:53:33;101563.00;;;26.60
44429;BMP180;30134;47.866;-4.222;2022-11-13T09:56:30;101566.00;;;26.60
44429;BMP180;30134;47.866;-4.222;2022-11-13T10:04:22;101558.00;;;26.50
44429;BMP180;30134;47.866;-4.222;2022-11-13T10:07:12;101560.00;;;26.50
44429;BMP180;30134;47.866;-4.222;2022-11-13T10:09:58;101565.00;;;26.50
44429;BMP180;30134;47.866;-4.222;2022-11-13T10:12:27;101566.00;;;26.50
44429;BMP180;30134;47.866;-4.222;2022-11-13T10:14:54;101563.00;;;26.50
44429;BMP180;30134;47.866;-4.222;2022-11-13T10:20:04;101555.00;;;26.50
44429;BMP180;30134;47.866;-4.222;2022-11-13T10:25:10;101556.00;;;26.50
44429;BMP180;30134;47.866;-4.222;2022-11-13T10:27:37;101558.00;;;26.50
44429;BMP180;30134;47.866;-4.222;2022-11-13T10:30:05;101560.00;;;26.50
44429;BMP180;30134;47.866;-4.222;2022-11-13T10:32:36;101558.00;;;26.50
44429;BMP180;30134;47.866;-4.222;2022-11-13T10:40:24;101564.00;;;26.50
44429;BMP180;30134;47.866;-4.222;2022-11-13T10:42:50;101564.00;;;26.50
44429;BMP180;30134;47.866;-4.222;2022-11-13T10:45:18;101564.00;;;26.50
44429;BMP180;30134;47.866;-4.222;2022-11-13T10:47:48;101567.00;;;26.50
44429;BMP180;30134;47.866;-4.222;2022-11-13T10:50:22;101560.00;;;26.50
44429;BMP180;30134;47.866;-4.222;2022-11-13T10:52:49;101558.00;;;26.50
44429;BMP180;30134;47.866;-4.222;2022-11-13T10:57:58;101549.00;;;26.50
44429;BMP180;30134;47.866;-4.222;2022-11-13T11:00:31;101544.00;;;26.60
44429;BMP180;30134;47.866;-4.222;2022-11-13T11:02:57;101544.00;;;26.60
44429;BMP180;30134;47.866;-4.222;2022-11-13T11:05:24;101541.00;;;26.60
44429;BMP180;30134;47.866;-4.222;2022-11-13T11:07:52;101541.00;;;26.60
44429;BMP180;30134;47.866;-4.222;2022-11-13T11:10:35;101535.00;;;26.60
44429;BMP180;30134;47.866;-4.222;2022-11-13T11:13:18;101529.00;;;26.60
44429;BMP180;30134;47.866;-4.222;2022-11-13T11:15:50;101538.00;;;26.60
44429;BMP180;30134;47.866;-4.222;2022-11-13T11:21:21;101524.00;;;26.60
44429;BMP180;30134;47.866;-4.222;2022-11-13T11:24:08;101522.00;;;26.60
44429;BMP180;30134;47.866;-4.222;2022-11-13T11:29:25;101523.00;;;26.60
44429;BMP180;30134;47.866;-4.222;2022-11-13T11:32:08;101519.00;;;26.60
44429;BMP180;30134;47.866;-4.222;2022-11-13T11:34:44;101506.00;;;26.60
44429;BMP180;30134;47.866;-4.222;2022-11-13T11:37:22;101507.00;;;26.60
44429;BMP180;30134;47.866;-4.222;2022-11-13T11:40:18;101501.00;;;26.70
44429;BMP180;30134;47.866;-4.222;2022-11-13T11:45:30;101505.00;;;26.60
44429;BMP180;30134;47.866;-4.222;2022-11-13T11:47:58;101497.00;;;26.70
44429;BMP180;30134;47.866;-4.222;2022-11-13T11:50:35;101504.00;;;26.70
44429;BMP180;30134;47.866;-4.222;2022-11-13T11:58:55;101497.00;;;26.60
44429;BMP180;30134;47.866;-4.222;2022-11-13T12:04:29;101486.00;;;26.50
44429;BMP180;30134;47.866;-4.222;2022-11-13T12:17:54;101468.00;;;26.70
44429;BMP180;30134;47.866;-4.222;2022-11-13T12:21:18;101465.00;;;26.70
44429;BMP180;30134;47.866;-4.222;2022-11-13T12:26:05;101454.00;;;26.70
44429;BMP180;30134;47.866;-4.222;2022-11-13T12:31:36;101438.00;;;26.80
44429;BMP180;30134;47.866;-4.222;2022-11-13T12:34:47;101436.00;;;26.80
44429;BMP180;30134;47.866;-4.222;2022-11-13T12:40:19;101452.00;;;26.80
44429;BMP180;30134;47.866;-4.222;2022-11-13T12:50:55;101430.00;;;26.90
44429;BMP180;30134;47.866;-4.222;2022-11-13T12:53:29;101427.00;;;26.90
44429;BMP180;30134;47.866;-4.222;2022-11-13T12:55:59;101428.00;;;26.90
44429;BMP180;30134;47.866;-4.222;2022-11-13T12:58:29;101423.00;;;26.90
44429;BMP180;30134;47.866;-4.222;2022-11-13T13:01:15;101425.00;;;27.00
44429;BMP180;30134;47.866;-4.222;2022-11-13T13:17:28;101408.00;;;27.00
44429;BMP180;30134;47.866;-4.222;2022-11-13T13:20:06;101409.00;;;27.00
44429;BMP180;30134;47.866;-4.222;2022-11-13T13:22:59;101405.00;;;27.10
44429;BMP180;30134;47.866;-4.222;2022-11-13T13:25:35;101410.00;;;27.10
44429;BMP180;30134;47.866;-4.222;2022-11-13T13:30:47;101399.00;;;27.10
44429;BMP180;30134;47.866;-4.222;2022-11-13T13:33:31;101399.00;;;27.10
44429;BMP180;30134;47.866;-4.222;2022-11-13T13:39:07;101390.00;;;27.10
44429;BMP180;30134;47.866;-4.222;2022-11-13T13:42:17;101390.00;;;27.10
44429;BMP180;30134;47.866;-4.222;2022-11-13T13:47:52;101381.00;;;27.20
44429;BMP180;30134;47.866;-4.222;2022-11-13T13:50:27;101381.00;;;27.20
44429;BMP180;30134;47.866;-4.222;2022-11-13T13:52:56;101377.00;;;27.20
44429;BMP180;30134;47.866;-4.222;2022-11-13T13:55:34;101376.00;;;27.20
44429;BMP180;30134;47.866;-4.222;2022-11-13T13:58:08;101376.00;;;27.20
44429;BMP180;30134;47.866;-4.222;2022-11-13T14:00:37;101376.00;;;27.20
44429;BMP180;30134;47.866;-4.222;2022-11-13T14:03:11;101368.00;;;27.20
44429;BMP180;30134;47.866;-4.222;2022-11-13T14:05:41;101364.00;;;27.20
44429;BMP180;30134;47.866;-4.222;2022-11-13T14:08:23;101358.00;;;27.20
44429;BMP180;30134;47.866;-4.222;2022-11-13T14:10:50;101344.00;;;27.30
44429;BMP180;30134;47.866;-4.222;2022-11-13T14:13:26;101349.00;;;27.30
44429;BMP180;30134;47.866;-4.222;2022-11-13T14:16:02;101348.00;;;27.30
44429;BMP180;30134;47.866;-4.222;2022-11-13T14:18:30;101348.00;;;27.30
44429;BMP180;30134;47.866;-4.222;2022-11-13T14:21:00;101348.00;;;27.30
44429;BMP180;30134;47.866;-4.222;2022-11-13T14:23:35;101346.00;;;27.30
44429;BMP180;30134;47.866;-4.222;2022-11-13T14:26:04;101344.00;;;27.30
44429;BMP180;30134;47.866;-4.222;2022-11-13T14:28:33;101348.00;;;27.30
44429;BMP180;30134;47.866;-4.222;2022-11-13T14:31:10;101343.00;;;27.30
44429;BMP180;30134;47.866;-4.222;2022-11-13T14:33:45;101345.00;;;27.30
44429;BMP180;30134;47.866;-4.222;2022-11-13T14:36:14;101342.00;;;27.30
44429;BMP180;30134;47.866;-4.222;2022-11-13T14:38:46;101338.00;;;27.30
44429;BMP180;30134;47.866;-4.222;2022-11-13T14:41:34;101342.00;;;27.40
44429;BMP180;30134;47.866;-4.222;2022-11-13T14:44:02;101343.00;;;27.40
44429;BMP180;30134;47.866;-4.222;2022-11-13T14:46:36;101335.00;;;27.40
44429;BMP180;30134;47.866;-4.222;2022-11-13T14:49:11;101340.00;;;27.40
44429;BMP180;30134;47.866;-4.222;2022-11-13T14:51:39;101333.00;;;27.40
44429;BMP180;30134;47.866;-4.222;2022-11-13T14:54:25;101330.00;;;27.40
44429;BMP180;30134;47.866;-4.222;2022-11-13T14:56:51;101334.00;;;27.40
44429;BMP180;30134;47.866;-4.222;2022-11-13T14:59:26;101332.00;;;27.40
44429;BMP180;30134;47.866;-4.222;2022-11-13T15:01:56;101333.00;;;27.40
44429;BMP180;30134;47.866;-4.222;2022-11-13T15:04:24;101326.00;;;27.40
44429;BMP180;30134;47.866;-4.222;2022-11-13T15:06:50;101321.00;;;27.40
44429;BMP180;30134;47.866;-4.222;2022-11-13T15:09:22;101325.00;;;27.40
44429;BMP180;30134;47.866;-4.222;2022-11-13T15:11:49;101320.00;;;27.40
44429;BMP180;30134;47.866;-4.222;2022-11-13T15:14:18;101315.00;;;27.50
44429;BMP180;30134;47.866;-4.222;2022-11-13T15:16:45;101313.00;;;27.50
44429;BMP180;30134;47.866;-4.222;2022-11-13T15:19:33;101317.00;;;27.50
44429;BMP180;30134;47.866;-4.222;2022-11-13T15:22:00;101303.00;;;27.50
44429;BMP180;30134;47.866;-4.222;2022-11-13T15:24:26;101310.00;;;27.50
44429;BMP180;30134;47.866;-4.222;2022-11-13T15:26:52;101311.00;;;27.50
44429;BMP180;30134;47.866;-4.222;2022-11-13T15:29:18;101320.00;;;27.50
44429;BMP180;30134;47.866;-4.222;2022-11-13T15:31:46;101316.00;;;27.50